createdAt,value
2023-04-18T00:00:33.038Z,5.82
2023-04-18T00:03:02.323Z,6.43
2023-04-18T00:05:30.446Z,6.35
2023-04-18T00:07:56.747Z,6.57
2023-04-18T00:10:23.087Z,6.53
2023-04-18T00:12:49.407Z,6.60
2023-04-18T00:15:15.799Z,6.35
2023-04-18T00:17:42.164Z,6.60
2023-04-18T00:20:09.369Z,5.88
2023-04-18T00:22:36.039Z,6.07
2023-04-18T00:25:02.395Z,6.13
2023-04-18T00:27:28.707Z,6.78
2023-04-18T00:29:54.993Z,6.28
2023-04-18T00:32:21.345Z,6.28
2023-04-18T00:34:47.665Z,6.32
2023-04-18T00:37:13.973Z,5.97
2023-04-18T00:39:40.318Z,5.82
2023-04-18T00:42:06.650Z,5.40
2023-04-18T00:44:33.037Z,6.30
2023-04-18T00:46:59.365Z,6.60
2023-04-18T00:49:26.793Z,5.65
2023-04-18T00:51:54.313Z,6.35
2023-04-18T00:54:21.571Z,6.50
2023-04-18T00:56:48.472Z,6.43
2023-04-18T00:59:14.756Z,6.20
2023-04-18T01:01:41.080Z,5.53
2023-04-18T01:04:08.144Z,6.20
2023-04-18T01:06:35.413Z,5.53
2023-04-18T01:09:01.829Z,6.47
2023-04-18T01:11:28.266Z,6.53
2023-04-18T01:14:08.056Z,6.28
2023-04-18T01:16:34.602Z,6.45
2023-04-18T01:19:01.752Z,6.20
2023-04-18T01:21:28.492Z,6.25
2023-04-18T01:23:57.759Z,6.03
2023-04-18T01:26:24.176Z,6.32
2023-04-18T01:28:50.463Z,6.57
2023-04-18T01:31:16.768Z,7.15
2023-04-18T01:33:43.147Z,6.43
2023-04-18T01:36:09.439Z,5.95
2023-04-18T01:38:35.752Z,6.63
2023-04-18T01:41:02.118Z,5.78
2023-04-18T01:43:28.415Z,6.43
2023-04-18T01:45:54.750Z,7.72
2023-04-18T01:48:21.056Z,6.20
2023-04-18T01:50:47.365Z,7.05
2023-04-18T01:53:13.677Z,7.38
2023-04-18T01:55:39.992Z,7.35
2023-04-18T01:58:06.301Z,7.70
2023-04-18T02:00:32.647Z,7.97
2023-04-18T02:02:59.285Z,8.23
2023-04-18T02:05:25.808Z,7.68
2023-04-18T02:07:52.109Z,9.15
2023-04-18T02:10:19.131Z,8.07
2023-04-18T02:12:45.499Z,7.95
2023-04-18T02:15:11.945Z,8.60
2023-04-18T02:17:38.306Z,8.52
2023-04-18T02:20:05.035Z,9.00
2023-04-18T02:22:31.778Z,8.13
2023-04-18T02:24:58.070Z,8.77
2023-04-18T02:27:24.389Z,8.57
2023-04-18T02:29:50.692Z,9.18
2023-04-18T02:32:16.992Z,9.02
2023-04-18T02:34:43.284Z,8.35
2023-04-18T02:37:09.594Z,8.82
2023-04-18T02:39:35.891Z,9.10
2023-04-18T02:42:02.190Z,8.30
2023-04-18T02:44:28.484Z,8.68
2023-04-18T02:46:54.773Z,8.23
2023-04-18T02:49:21.103Z,8.52
2023-04-18T02:51:47.476Z,8.23
2023-04-18T02:54:13.909Z,8.40
2023-04-18T02:56:40.435Z,8.55
2023-04-18T02:59:07.191Z,8.95
2023-04-18T03:01:34.029Z,8.85
2023-04-18T03:04:00.525Z,8.82
2023-04-18T03:06:26.844Z,8.90
2023-04-18T03:08:54.608Z,8.48
2023-04-18T03:11:20.942Z,8.93
2023-04-18T03:13:47.228Z,9.73
2023-04-18T03:16:13.668Z,8.93
2023-04-18T03:18:39.990Z,8.68
2023-04-18T03:21:06.304Z,9.50
2023-04-18T03:23:32.604Z,9.27
2023-04-18T03:25:59.024Z,9.82
2023-04-18T03:28:25.349Z,10.90
2023-04-18T03:30:51.761Z,10.35
2023-04-18T03:33:18.147Z,11.73
2023-04-18T03:35:44.506Z,11.77
2023-04-18T03:38:10.805Z,10.95
2023-04-18T03:40:37.136Z,11.68
2023-04-18T03:43:03.436Z,10.93
2023-04-18T03:45:30.124Z,12.30
2023-04-18T03:47:56.459Z,11.27
2023-04-18T03:50:22.870Z,11.27
2023-04-18T03:52:49.202Z,12.05
2023-04-18T03:55:15.805Z,11.80
2023-04-18T03:57:42.118Z,11.35
2023-04-18T04:00:10.572Z,11.60
2023-04-18T04:02:37.032Z,11.77
2023-04-18T04:05:03.756Z,12.48
2023-04-18T04:07:30.833Z,12.55
2023-04-18T04:09:57.772Z,13.27
2023-04-18T04:12:25.395Z,12.65
2023-04-18T04:14:51.710Z,13.75
2023-04-18T04:17:18.036Z,13.55
2023-04-18T04:19:44.341Z,13.88
2023-04-18T04:22:10.870Z,15.10
2023-04-18T04:24:37.171Z,14.77
2023-04-18T04:27:03.847Z,13.88
2023-04-18T04:29:30.157Z,14.15
2023-04-18T04:31:56.850Z,14.18
2023-04-18T04:34:23.223Z,14.18
2023-04-18T04:36:49.642Z,14.05
2023-04-18T04:39:15.990Z,14.90
2023-04-18T04:41:42.399Z,15.30
2023-04-18T04:44:08.867Z,15.73
2023-04-18T04:46:35.785Z,16.08
2023-04-18T04:49:02.088Z,18.75
2023-04-18T04:51:28.573Z,19.05
2023-04-18T04:53:54.882Z,17.40
2023-04-18T04:56:21.281Z,18.25
2023-04-18T04:58:47.576Z,19.25
2023-04-18T05:01:13.986Z,19.58
2023-04-18T05:03:40.388Z,21.65
2023-04-18T05:06:07.035Z,19.45
2023-04-18T05:08:33.359Z,20.33
2023-04-18T05:11:01.237Z,19.48
2023-04-18T05:13:27.562Z,19.08
2023-04-18T05:15:54.013Z,19.25
2023-04-18T05:18:20.330Z,19.38
2023-04-18T05:20:46.627Z,19.58
2023-04-18T05:23:12.957Z,19.92
2023-04-18T05:25:39.364Z,19.83
2023-04-18T05:28:05.701Z,17.83
2023-04-18T05:30:32.005Z,19.13
2023-04-18T05:32:58.313Z,19.65
2023-04-18T05:35:24.720Z,17.98
2023-04-18T05:37:51.013Z,19.25
2023-04-18T05:40:17.316Z,18.80
2023-04-18T05:42:43.623Z,17.83
2023-04-18T05:45:10.290Z,18.63
2023-04-18T05:47:36.719Z,19.60
2023-04-18T05:50:03.193Z,19.65
2023-04-18T05:52:29.511Z,19.38
2023-04-18T05:54:55.834Z,19.17
2023-04-18T05:57:22.174Z,20.13
2023-04-18T05:59:48.580Z,20.10
2023-04-18T06:02:15.013Z,19.02
2023-04-18T06:04:42.693Z,19.67
2023-04-18T06:07:09.929Z,19.63
2023-04-18T06:09:36.444Z,18.92
2023-04-18T06:12:03.065Z,21.48
2023-04-18T06:14:29.426Z,19.90
2023-04-18T06:16:55.948Z,21.15
2023-04-18T06:19:22.270Z,20.83
2023-04-18T06:21:49.097Z,20.50
2023-04-18T06:24:15.748Z,20.63
2023-04-18T06:26:42.326Z,20.17
2023-04-18T06:29:08.634Z,20.45
2023-04-18T06:31:34.976Z,20.42
2023-04-18T06:34:01.269Z,21.73
2023-04-18T06:36:27.706Z,21.65
2023-04-18T06:38:54.013Z,21.30
2023-04-18T06:41:20.304Z,22.17
2023-04-18T06:43:59.830Z,21.23
2023-04-18T06:46:30.097Z,22.17
2023-04-18T06:48:56.712Z,22.23
2023-04-18T06:51:23.062Z,23.35
2023-04-18T06:53:49.357Z,21.38
2023-04-18T06:56:15.677Z,22.80
2023-04-18T06:58:42.117Z,20.90
2023-04-18T07:01:08.459Z,21.58
2023-04-18T07:03:34.894Z,23.38
2023-04-18T07:06:01.275Z,23.83
2023-04-18T07:08:27.571Z,22.40
2023-04-18T07:10:53.924Z,23.23
2023-04-18T07:13:20.233Z,23.13
2023-04-18T07:15:46.648Z,23.25
2023-04-18T07:18:18.039Z,25.42
2023-04-18T07:20:49.838Z,24.48
2023-04-18T07:23:16.156Z,23.92
2023-04-18T07:25:42.452Z,24.55
2023-04-18T07:28:08.768Z,26.10
2023-04-18T07:30:35.078Z,25.20
2023-04-18T07:33:01.402Z,25.40
2023-04-18T07:35:27.778Z,25.98
2023-04-18T07:37:54.247Z,26.35
2023-04-18T07:40:21.074Z,26.58
2023-04-18T07:42:47.389Z,25.67
2023-04-18T07:45:13.703Z,25.55
2023-04-18T07:47:40.134Z,28.30
2023-04-18T07:50:07.174Z,28.13
2023-04-18T07:52:34.226Z,25.75
2023-04-18T07:55:00.537Z,23.80
2023-04-18T07:57:26.867Z,24.77
2023-04-18T07:59:53.233Z,25.42
2023-04-18T08:02:20.590Z,23.98
2023-04-18T08:04:47.064Z,22.67
2023-04-18T08:07:13.636Z,24.30
2023-04-18T08:09:39.932Z,24.17
2023-04-18T08:12:06.394Z,24.30
2023-04-18T08:14:32.714Z,23.40
2023-04-18T08:16:59.070Z,24.17
2023-04-18T08:19:25.669Z,24.17
2023-04-18T08:21:52.068Z,23.60
2023-04-18T08:24:18.627Z,24.13
2023-04-18T08:26:44.982Z,23.88
2023-04-18T08:29:11.551Z,22.50
2023-04-18T08:31:38.951Z,22.90
2023-04-18T08:34:05.376Z,22.42
2023-04-18T08:36:31.708Z,22.15
2023-04-18T08:38:57.997Z,22.45
2023-04-18T08:41:25.125Z,23.15
2023-04-18T08:43:51.475Z,22.90
2023-04-18T08:46:17.831Z,22.00
2023-04-18T08:48:44.265Z,21.80
2023-04-18T08:51:10.552Z,23.92
2023-04-18T08:53:37.302Z,23.67
2023-04-18T08:56:03.627Z,25.33
2023-04-18T08:58:29.923Z,24.70
2023-04-18T09:00:56.356Z,23.92
2023-04-18T09:03:40.957Z,22.80
2023-04-18T09:06:17.035Z,21.77
2023-04-18T09:08:43.572Z,22.70
2023-04-18T09:11:27.402Z,20.58
2023-04-18T09:13:54.173Z,21.88
2023-04-18T09:16:20.557Z,21.92
2023-04-18T09:19:07.818Z,21.05
2023-04-18T09:21:34.142Z,19.90
2023-04-18T09:24:17.511Z,19.27
2023-04-18T09:26:43.815Z,19.27
2023-04-18T09:29:10.121Z,18.65
2023-04-18T09:31:54.535Z,19.13
2023-04-18T09:34:21.516Z,18.63
2023-04-18T09:37:05.787Z,18.42
2023-04-18T09:39:32.200Z,16.83
2023-04-18T09:41:59.475Z,15.98
2023-04-18T09:44:25.885Z,15.75
2023-04-18T09:46:52.334Z,17.13
2023-04-18T09:49:18.754Z,16.77
2023-04-18T09:51:45.630Z,16.95
2023-04-18T09:54:16.346Z,17.00
2023-04-18T09:56:45.502Z,16.50
2023-04-18T09:59:15.849Z,16.52
2023-04-18T10:01:44.149Z,15.18
2023-04-18T10:04:12.368Z,15.68
2023-04-18T10:06:39.498Z,16.17
2023-04-18T10:09:09.033Z,15.57
2023-04-18T10:11:36.163Z,15.32
2023-04-18T10:14:10.862Z,15.18
2023-04-18T10:16:38.084Z,14.95
2023-04-18T10:19:25.643Z,14.93
2023-04-18T10:21:56.477Z,14.43
2023-04-18T10:24:52.170Z,14.70
2023-04-18T10:27:55.852Z,14.18
2023-04-18T10:30:42.094Z,14.02
2023-04-18T10:33:29.922Z,13.80
2023-04-18T10:36:17.100Z,13.18
2023-04-18T10:38:47.651Z,13.23
2023-04-18T10:41:28.876Z,13.40
2023-04-18T10:44:08.395Z,13.55
2023-04-18T10:46:38.233Z,13.65
2023-04-18T10:49:14.400Z,13.45
2023-04-18T10:51:41.205Z,13.68
2023-04-18T10:54:10.400Z,12.82
2023-04-18T10:56:37.085Z,12.95
2023-04-18T10:59:03.728Z,13.57
2023-04-18T11:01:32.688Z,13.05
2023-04-18T11:04:00.303Z,14.68
2023-04-18T11:06:26.749Z,13.00
2023-04-18T11:09:12.755Z,13.88
2023-04-18T11:11:39.543Z,13.23
2023-04-18T11:14:05.877Z,13.13
2023-04-18T11:16:33.746Z,13.55
2023-04-18T11:19:00.295Z,12.88
2023-04-18T11:21:29.217Z,12.52
2023-04-18T11:23:57.680Z,15.65
2023-04-18T11:26:27.839Z,13.40
2023-04-18T11:28:57.768Z,12.63
2023-04-18T11:31:24.961Z,12.45
2023-04-18T11:33:52.314Z,12.27
2023-04-18T11:36:18.703Z,12.13
2023-04-18T11:38:45.105Z,12.27
2023-04-18T11:41:15.485Z,12.50
2023-04-18T11:43:43.713Z,13.00
2023-04-18T11:46:10.833Z,12.27
2023-04-18T11:48:38.763Z,10.93
2023-04-18T11:51:06.368Z,11.40
2023-04-18T11:53:34.349Z,11.10
2023-04-18T11:56:00.901Z,11.93
2023-04-18T11:58:34.834Z,11.82
2023-04-18T12:01:22.294Z,11.83
2023-04-18T12:04:11.576Z,11.43
2023-04-18T12:06:50.875Z,11.50
2023-04-18T12:09:18.468Z,11.60
2023-04-18T12:11:55.971Z,11.45
2023-04-18T12:14:22.581Z,11.00
2023-04-18T12:16:50.023Z,11.63
2023-04-18T12:19:16.636Z,11.15
2023-04-18T12:22:02.885Z,11.13
2023-04-18T12:24:29.296Z,10.60
2023-04-18T12:26:55.858Z,10.95
2023-04-18T12:29:22.238Z,10.98
2023-04-18T12:31:48.617Z,11.65
2023-04-18T12:34:15.611Z,11.63
2023-04-18T12:36:42.741Z,11.85
2023-04-18T12:39:09.124Z,10.57
2023-04-18T12:41:35.546Z,11.95
2023-04-18T12:44:02.112Z,10.88
2023-04-18T12:46:28.530Z,10.57
2023-04-18T12:48:54.927Z,10.35
2023-04-18T12:51:21.208Z,10.52
2023-04-18T12:53:47.534Z,9.45
2023-04-18T12:56:13.905Z,9.82
2023-04-18T12:58:40.231Z,8.90
2023-04-18T13:01:06.574Z,9.15
2023-04-18T13:03:33.733Z,9.82
2023-04-18T13:06:00.267Z,9.32
2023-04-18T13:08:26.669Z,9.77
2023-04-18T13:10:53.059Z,9.43
2023-04-18T13:13:19.359Z,9.43
2023-04-18T13:15:45.791Z,9.40
2023-04-18T13:18:12.132Z,9.45
2023-04-18T13:20:38.432Z,8.35
2023-04-18T13:23:04.963Z,9.35
2023-04-18T13:25:31.328Z,8.50
2023-04-18T13:27:57.645Z,8.65
2023-04-18T13:30:24.079Z,8.13
2023-04-18T13:32:50.501Z,8.18
2023-04-18T13:35:16.951Z,8.30
2023-04-18T13:37:43.265Z,8.48
2023-04-18T13:40:09.945Z,8.00
2023-04-18T13:42:37.240Z,8.95
2023-04-18T13:45:04.492Z,8.63
2023-04-18T13:47:31.011Z,7.95
2023-04-18T13:49:57.450Z,8.20
2023-04-18T13:52:24.117Z,8.30
2023-04-18T13:54:50.475Z,8.70
2023-04-18T13:57:16.845Z,8.55
2023-04-18T13:59:43.152Z,9.05
2023-04-18T14:02:10.091Z,8.63
2023-04-18T14:04:36.854Z,7.93
2023-04-18T14:07:04.089Z,7.47
2023-04-18T14:09:30.396Z,7.88
2023-04-18T14:11:56.691Z,8.13
2023-04-18T14:14:22.998Z,7.78
2023-04-18T14:16:49.338Z,7.93
2023-04-18T14:19:15.905Z,8.80
2023-04-18T14:21:42.308Z,7.97
2023-04-18T14:24:08.965Z,7.80
2023-04-18T14:26:35.296Z,7.75
2023-04-18T14:29:01.583Z,8.20
2023-04-18T14:31:27.927Z,8.20
2023-04-18T14:33:54.232Z,8.13
2023-04-18T14:36:20.549Z,7.15
2023-04-18T14:38:47.856Z,7.80
2023-04-18T14:41:14.227Z,7.65
2023-04-18T14:43:40.563Z,7.80
2023-04-18T14:46:14.080Z,7.57
2023-04-18T14:48:40.595Z,8.02
2023-04-18T14:51:07.296Z,6.80
2023-04-18T14:53:34.034Z,7.13
2023-04-18T14:56:00.330Z,7.25
2023-04-18T14:58:26.688Z,7.18
2023-04-18T15:00:53.007Z,7.97
2023-04-18T15:03:19.376Z,7.05
2023-04-18T15:05:45.833Z,7.57
2023-04-18T15:08:15.161Z,7.45
2023-04-18T15:10:42.138Z,7.28
2023-04-18T15:13:09.438Z,7.40
2023-04-18T15:15:35.772Z,7.68
2023-04-18T15:18:02.132Z,7.40
2023-04-18T15:20:28.721Z,7.57
2023-04-18T15:22:55.864Z,7.65
2023-04-18T15:25:22.219Z,7.22
2023-04-18T15:27:48.556Z,7.88
2023-04-18T15:30:14.903Z,7.20
2023-04-18T15:32:41.279Z,7.20
2023-04-18T15:35:11.471Z,7.22
2023-04-18T15:37:37.794Z,7.75
2023-04-18T15:40:04.696Z,7.90
2023-04-18T15:42:31.214Z,7.88
2023-04-18T15:44:57.587Z,7.55
2023-04-18T15:47:23.966Z,7.13
2023-04-18T15:49:50.400Z,7.78
2023-04-18T15:52:16.763Z,8.07
2023-04-18T15:54:43.236Z,7.65
2023-04-18T15:57:10.391Z,7.68
2023-04-18T15:59:37.385Z,8.00
2023-04-18T16:02:04.012Z,7.50
2023-04-18T16:04:30.533Z,8.45
2023-04-18T16:06:56.908Z,8.18
2023-04-18T16:09:23.384Z,8.27
2023-04-18T16:11:49.726Z,8.07
2023-04-18T16:14:16.320Z,8.32
2023-04-18T16:16:42.800Z,8.48
2023-04-18T16:19:09.197Z,8.77
2023-04-18T16:21:35.566Z,8.60
2023-04-18T16:24:01.896Z,8.35
2023-04-18T16:26:28.247Z,7.97
2023-04-18T16:28:54.585Z,7.97
2023-04-18T16:31:20.921Z,7.88
2023-04-18T16:33:47.469Z,8.05
2023-04-18T16:36:13.821Z,8.38
2023-04-18T16:38:40.162Z,7.72
2023-04-18T16:41:06.463Z,7.80
2023-04-18T16:43:32.894Z,8.13
2023-04-18T16:45:59.198Z,7.60
2023-04-18T16:48:25.770Z,7.32
2023-04-18T16:50:52.076Z,7.72
2023-04-18T16:53:18.447Z,8.15
2023-04-18T16:55:44.740Z,8.50
2023-04-18T16:58:11.172Z,7.95
2023-04-18T17:00:38.479Z,7.70
2023-04-18T17:03:05.315Z,8.43
2023-04-18T17:05:31.639Z,7.50
2023-04-18T17:07:58.005Z,9.18
2023-04-18T17:10:24.505Z,8.50
2023-04-18T17:12:50.869Z,9.05
2023-04-18T17:15:18.204Z,8.60
2023-04-18T17:17:44.749Z,9.10
2023-04-18T17:20:11.420Z,9.27
2023-04-18T17:22:37.987Z,9.10
2023-04-18T17:25:05.138Z,8.68
2023-04-18T17:27:31.518Z,8.80
2023-04-18T17:29:57.861Z,9.60
2023-04-18T17:32:24.385Z,9.50
2023-04-18T17:34:50.713Z,10.10
2023-04-18T17:37:17.026Z,9.70
2023-04-18T17:39:43.790Z,10.65
2023-04-18T17:42:10.097Z,9.45
2023-04-18T17:44:36.559Z,9.63
2023-04-18T17:47:02.873Z,9.60
2023-04-18T17:49:29.189Z,9.57
2023-04-18T17:51:55.666Z,9.00
2023-04-18T17:54:21.973Z,9.23
2023-04-18T17:56:48.410Z,10.25
2023-04-18T17:59:14.908Z,9.73
2023-04-18T18:01:41.521Z,10.30
2023-04-18T18:04:07.949Z,10.27
2023-04-18T18:06:34.363Z,10.60
2023-04-18T18:09:00.694Z,10.50
2023-04-18T18:11:27.060Z,10.23
2023-04-18T18:13:53.614Z,9.25
2023-04-18T18:16:20.484Z,10.20
2023-04-18T18:18:46.813Z,10.60
2023-04-18T18:21:13.129Z,9.45
2023-04-18T18:23:39.458Z,10.05
2023-04-18T18:26:05.788Z,9.75
2023-04-18T18:28:32.165Z,10.48
2023-04-18T18:30:58.710Z,9.93
2023-04-18T18:33:25.075Z,10.70
2023-04-18T18:35:51.397Z,10.57
2023-04-18T18:38:17.705Z,10.75
2023-04-18T18:40:44.064Z,9.98
2023-04-18T18:43:10.381Z,10.02
2023-04-18T18:45:38.085Z,10.00
2023-04-18T18:48:05.322Z,9.68
2023-04-18T18:50:31.765Z,11.13
2023-04-18T18:52:58.065Z,10.57
2023-04-18T18:55:24.470Z,9.43
2023-04-18T18:57:51.041Z,10.27
2023-04-18T19:00:17.512Z,9.93
2023-04-18T19:02:44.111Z,10.30
2023-04-18T19:05:10.561Z,9.98
2023-04-18T19:07:36.875Z,10.35
2023-04-18T19:10:03.443Z,10.98
2023-04-18T19:12:29.760Z,11.15
2023-04-18T19:14:56.078Z,10.85
2023-04-18T19:17:22.540Z,11.00
2023-04-18T19:19:48.894Z,10.38
2023-04-18T19:22:15.203Z,11.60
2023-04-18T19:24:41.506Z,11.70
2023-04-18T19:27:07.891Z,11.75
2023-04-18T19:29:35.938Z,11.85
2023-04-18T19:32:02.265Z,11.50
2023-04-18T19:34:28.624Z,11.10
2023-04-18T19:36:55.022Z,11.95
2023-04-18T19:39:21.352Z,11.45
2023-04-18T19:41:47.684Z,11.40
2023-04-18T19:44:13.990Z,12.10
2023-04-18T19:46:40.351Z,15.43
2023-04-18T19:49:06.863Z,16.80
2023-04-18T19:51:33.194Z,13.40
2023-04-18T19:53:59.546Z,13.10
2023-04-18T19:56:25.861Z,12.63
2023-04-18T19:58:52.180Z,12.15
2023-04-18T20:01:19.622Z,12.10
2023-04-18T20:03:46.372Z,11.98
2023-04-18T20:06:13.275Z,12.15
2023-04-18T20:08:41.054Z,12.32
2023-04-18T20:11:11.732Z,12.20
2023-04-18T20:13:38.229Z,12.75
2023-04-18T20:16:05.315Z,12.63
2023-04-18T20:18:31.686Z,12.30
2023-04-18T20:20:58.349Z,13.23
2023-04-18T20:23:24.727Z,12.57
2023-04-18T20:25:51.082Z,12.55
2023-04-18T20:28:17.388Z,13.55
2023-04-18T20:30:43.740Z,12.77
2023-04-18T20:33:10.084Z,12.18
2023-04-18T20:35:36.411Z,12.07
2023-04-18T20:38:02.705Z,12.23
2023-04-18T20:40:29.056Z,13.18
2023-04-18T20:42:55.601Z,12.57
2023-04-18T20:45:22.077Z,12.30
2023-04-18T20:47:48.517Z,12.38
2023-04-18T20:50:15.052Z,11.52
2023-04-18T20:52:41.514Z,11.70
2023-04-18T20:55:08.263Z,11.98
2023-04-18T20:57:35.657Z,11.55
2023-04-18T21:00:01.980Z,11.77
2023-04-18T21:02:28.438Z,11.57
2023-04-18T21:04:54.843Z,12.13
2023-04-18T21:07:21.153Z,11.63
2023-04-18T21:09:47.477Z,11.63
2023-04-18T21:12:13.845Z,10.52
2023-04-18T21:14:40.160Z,12.18
2023-04-18T21:17:06.623Z,11.35
2023-04-18T21:19:32.945Z,12.15
2023-04-18T21:21:59.253Z,11.15
2023-04-18T21:24:25.568Z,12.00
2023-04-18T21:26:51.886Z,11.50
2023-04-18T21:29:18.190Z,11.35
2023-04-18T21:31:44.617Z,10.93
2023-04-18T21:34:10.954Z,11.15
2023-04-18T21:36:37.276Z,10.65
2023-04-18T21:39:03.668Z,11.00
2023-04-18T21:41:29.965Z,10.90
2023-04-18T21:43:56.282Z,11.18
2023-04-18T21:46:22.784Z,11.20
2023-04-18T21:48:49.156Z,10.25
2023-04-18T21:51:16.715Z,11.13
2023-04-18T21:53:43.383Z,10.63
2023-04-18T21:56:09.894Z,11.38
2023-04-18T21:58:36.388Z,10.40
2023-04-18T22:01:03.112Z,10.10
2023-04-18T22:03:29.759Z,10.52
2023-04-18T22:05:56.257Z,10.23
2023-04-18T22:08:23.340Z,9.50
2023-04-18T22:10:49.635Z,8.60
2023-04-18T22:13:16.449Z,9.05
2023-04-18T22:15:42.757Z,9.93
2023-04-18T22:18:09.243Z,9.55
2023-04-18T22:20:35.611Z,8.90
2023-04-18T22:23:02.358Z,8.82
2023-04-18T22:25:29.018Z,9.32
2023-04-18T22:27:55.329Z,8.88
2023-04-18T22:30:21.903Z,8.82
2023-04-18T22:32:48.242Z,8.77
2023-04-18T22:35:14.596Z,8.93
2023-04-18T22:37:40.904Z,7.95
2023-04-18T22:40:07.858Z,7.85
2023-04-18T22:42:35.194Z,7.78
2023-04-18T22:45:03.241Z,8.13
2023-04-18T22:47:29.574Z,7.30
2023-04-18T22:49:55.907Z,7.60
2023-04-18T22:52:22.244Z,6.57
2023-04-18T22:54:48.551Z,7.32
2023-04-18T22:57:14.873Z,6.47
2023-04-18T22:59:41.197Z,7.18
2023-04-18T23:02:07.648Z,7.10
2023-04-18T23:04:34.176Z,6.30
2023-04-18T23:07:00.576Z,6.68
2023-04-18T23:09:27.019Z,6.45
2023-04-18T23:11:53.557Z,5.82
2023-04-18T23:14:19.867Z,5.40
2023-04-18T23:16:46.145Z,5.35
2023-04-18T23:19:12.448Z,5.28
2023-04-18T23:21:38.745Z,5.50
2023-04-18T23:24:05.246Z,6.07
2023-04-18T23:26:31.560Z,5.90
2023-04-18T23:28:57.913Z,6.70
2023-04-18T23:31:24.295Z,6.78
2023-04-18T23:33:50.671Z,7.63
2023-04-18T23:36:17.188Z,6.43
2023-04-18T23:38:43.846Z,6.53
2023-04-18T23:41:10.156Z,6.25
2023-04-18T23:43:36.451Z,6.63
2023-04-18T23:46:02.769Z,6.50
2023-04-18T23:48:29.070Z,6.28
2023-04-18T23:50:55.349Z,6.63
2023-04-18T23:53:22.681Z,6.07
2023-04-18T23:55:50.651Z,6.72
2023-04-18T23:58:17.419Z,6.55
